Adel, Georgia
Current Conditions -  °F | °C
As of 1:58 AM on Thursday 23 Oct 2014 (Local Time) from KVAD Reporting Station
Clear Clear  
Wind Chill: 51°   Ceiling: Unl
Heat Index: 51°   Visibility: 10mi
Dew Point: 44°   Wind: 1mph
Humidity: 78%   Direction: 10°N
Pressure: 30.05"   Gusts: NA
Location:  31.14°N, 83.42°W
Report Text: KVAD 230558Z AUTO 01001KT 10SM CLR 10/07 A3005 RMK AO2 SLP177 T01040067 10163 20085 58008 $
Loading
Personal Weather Stations






























Interactive Weather Map
Tropical Storm Tracking
New forecast layout! Learn more

10-Day Weather Forecast

Advertisements
Track Severe Weather on mobile